Time;durP1;ratioP1;P1;durP2;ratioP2;P2;SDS_P1;SDS_P2;PMS_P1;PMS_P2;Temp;Humidity;BMP_temperature;BMP_pressure;BME280_temperature;BME280_humidity;BME280_pressure;Samples;Min_cycle;Max_cycle;Signal;HPM_P1;HPM_P2
2023/02/10 00:01:29;;;;;;;24.50;13.90;;;;;;;;;;5075849;28;20434;-87
2023/02/10 00:03:56;;;;;;;25.20;12.67;;;;;;;;;;5074846;28;20467;-87
2023/02/10 00:06:23;;;;;;;24.10;12.93;;;;;;;;;;5074784;28;20419;-90
2023/02/10 00:08:54;;;;;;;28.90;15.07;;;;;;;;;;5075141;28;20424;-88
2023/02/10 00:11:55;;;;;;;30.40;14.23;;;;;;;;;;5074861;28;20913;-92
2023/02/10 00:14:06;;;;;;;29.70;14.87;;;;;;;;;;5075948;28;20403;-89
2023/02/10 00:16:31;;;;;;;28.77;14.63;;;;;;;;;;5076381;28;20502;-86
2023/02/10 00:18:57;;;;;;;28.93;14.80;;;;;;;;;;5075008;28;20561;-92
2023/02/10 00:21:23;;;;;;;27.43;13.63;;;;;;;;;;5076431;28;20935;-84
2023/02/10 00:23:49;;;;;;;30.90;14.53;;;;;;;;;;5075809;28;20408;-86
2023/02/10 00:26:15;;;;;;;23.07;12.43;;;;;;;;;;5075603;28;20395;-83
2023/02/10 00:28:41;;;;;;;30.80;15.27;;;;;;;;;;5074307;28;20415;-85
2023/02/10 00:31:19;;;;;;;27.13;13.03;;;;;;;;;;5074853;28;20400;-91
2023/02/10 00:33:45;;;;;;;30.50;12.90;;;;;;;;;;5076202;28;20399;-89
2023/02/10 00:36:13;;;;;;;24.50;13.57;;;;;;;;;;5076434;28;20408;-91
2023/02/10 00:38:39;;;;;;;27.90;13.60;;;;;;;;;;5074433;28;20510;-87
2023/02/10 00:41:06;;;;;;;22.40;12.53;;;;;;;;;;5076057;28;20411;-92
2023/02/10 00:43:32;;;;;;;23.93;12.50;;;;;;;;;;5074718;28;20926;-88
2023/02/10 00:45:58;;;;;;;25.33;11.97;;;;;;;;;;5075255;28;20423;-90
2023/02/10 00:48:24;;;;;;;31.90;15.07;;;;;;;;;;5074124;28;20767;-89
2023/02/10 00:50:50;;;;;;;26.67;12.53;;;;;;;;;;5074849;28;20427;-90
2023/02/10 00:53:16;;;;;;;26.37;13.30;;;;;;;;;;5075458;28;20416;-91
2023/02/10 00:55:42;;;;;;;31.17;14.30;;;;;;;;;;5075717;28;20408;-91
2023/02/10 00:58:08;;;;;;;24.83;12.33;;;;;;;;;;5074594;28;21007;-90
2023/02/10 01:00:37;;;;;;;30.40;15.77;;;;;;;;;;5036664;28;20445;-93
2023/02/10 01:03:03;;;;;;;39.07;14.93;;;;;;;;;;5074098;28;20464;-91
2023/02/10 01:05:28;;;;;;;29.03;13.13;;;;;;;;;;5074205;28;20510;-90
2023/02/10 01:07:55;;;;;;;28.73;12.77;;;;;;;;;;5074799;28;20441;-92
2023/02/10 01:10:21;;;;;;;31.50;15.27;;;;;;;;;;5074087;28;20419;-89
2023/02/10 01:12:47;;;;;;;34.60;14.73;;;;;;;;;;5073854;28;20509;-90
2023/02/10 01:15:13;;;;;;;25.60;13.53;;;;;;;;;;5075301;28;20412;-88
2023/02/10 01:17:39;;;;;;;24.00;13.20;;;;;;;;;;5074942;28;20423;-91
2023/02/10 01:20:05;;;;;;;27.63;13.60;;;;;;;;;;5084178;28;20434;-91
2023/02/10 01:22:35;;;;;;;21.30;13.23;;;;;;;;;;5077159;28;20411;-93
2023/02/10 01:25:01;;;;;;;26.20;14.30;;;;;;;;;;5074766;28;20514;-91
2023/02/10 01:27:27;;;;;;;26.97;13.60;;;;;;;;;;5075074;28;20409;-89
2023/02/10 01:29:53;;;;;;;30.63;12.53;;;;;;;;;;5074933;28;20416;-91
2023/02/10 01:32:19;;;;;;;21.13;12.70;;;;;;;;;;5073848;28;20458;-90
2023/02/10 01:34:45;;;;;;;27.13;13.87;;;;;;;;;;5074928;28;20450;-87
2023/02/10 01:37:11;;;;;;;29.73;12.17;;;;;;;;;;5074254;28;20923;-85
2023/02/10 01:39:37;;;;;;;22.50;12.67;;;;;;;;;;5073542;28;20474;-89
2023/02/10 01:42:03;;;;;;;22.80;13.10;;;;;;;;;;5073305;28;20439;-91
2023/02/10 01:44:29;;;;;;;26.00;13.77;;;;;;;;;;5074700;28;20419;-91
2023/02/10 01:46:55;;;;;;;24.60;13.10;;;;;;;;;;5074746;28;20415;-91
2023/02/10 01:49:26;;;;;;;23.80;12.67;;;;;;;;;;5075384;28;20462;-86
2023/02/10 01:51:54;;;;;;;31.83;12.80;;;;;;;;;;5073394;28;20480;-90
2023/02/10 01:54:24;;;;;;;24.10;11.80;;;;;;;;;;5074398;28;20488;-90
2023/02/10 01:56:51;;;;;;;22.17;10.90;;;;;;;;;;5073463;28;20513;-90
2023/02/10 01:59:18;;;;;;;24.83;10.83;;;;;;;;;;5074647;28;21096;-86
2023/02/10 02:01:44;;;;;;;25.40;12.30;;;;;;;;;;5073952;28;20430;-92
2023/02/10 02:04:10;;;;;;;20.50;11.33;;;;;;;;;;5073543;28;20427;-91
2023/02/10 02:06:36;;;;;;;29.07;14.10;;;;;;;;;;5073363;28;20482;-90
2023/02/10 02:09:02;;;;;;;28.37;12.30;;;;;;;;;;5074073;28;20408;-89
2023/02/10 02:11:47;;;;;;;25.33;11.77;;;;;;;;;;5073956;28;20421;-89
2023/02/10 02:14:36;;;;;;;17.77;11.60;;;;;;;;;;5073889;28;20428;-85
2023/02/10 02:17:22;;;;;;;21.30;13.17;;;;;;;;;;5074219;28;20413;-88
2023/02/10 02:19:48;;;;;;;24.87;11.30;;;;;;;;;;5074776;28;20628;-86
2023/02/10 02:22:37;;;;;;;19.17;10.37;;;;;;;;;;5085913;28;20414;-89
2023/02/10 02:25:11;;;;;;;23.00;11.17;;;;;;;;;;5074557;28;20786;-88
2023/02/10 02:27:56;;;;;;;21.63;10.57;;;;;;;;;;5073796;28;20426;-86
2023/02/10 02:30:32;;;;;;;25.43;10.90;;;;;;;;;;5073635;28;20418;-88
2023/02/10 02:33:04;;;;;;;18.17;9.93;;;;;;;;;;5073458;28;20494;-88
2023/02/10 02:35:44;;;;;;;25.10;10.77;;;;;;;;;;5072212;28;20465;-89
2023/02/10 02:38:10;;;;;;;22.43;12.60;;;;;;;;;;5071902;28;20461;-88
2023/02/10 02:40:36;;;;;;;24.47;10.43;;;;;;;;;;5073512;28;20415;-87
2023/02/10 02:43:03;;;;;;;19.27;10.57;;;;;;;;;;5073062;28;20902;-88
2023/02/10 02:45:41;;;;;;;19.30;9.47;;;;;;;;;;5073635;28;20420;-88
2023/02/10 02:48:10;;;;;;;23.50;11.07;;;;;;;;;;5080091;28;20423;-88
2023/02/10 02:50:54;;;;;;;19.47;10.00;;;;;;;;;;5073507;28;20420;-89
2023/02/10 02:53:39;;;;;;;27.77;11.90;;;;;;;;;;5071968;28;20412;-88
2023/02/10 02:56:21;;;;;;;26.20;9.83;;;;;;;;;;5060024;28;20415;-91
2023/02/10 02:58:50;;;;;;;23.63;10.43;;;;;;;;;;5066559;28;20550;-90
2023/02/10 03:01:35;;;;;;;24.90;10.13;;;;;;;;;;5072799;28;20794;-91
2023/02/10 03:04:02;;;;;;;31.37;12.67;;;;;;;;;;5072700;28;20498;-90
2023/02/10 03:06:28;;;;;;;30.30;12.30;;;;;;;;;;5072569;28;20430;-90
2023/02/10 03:08:54;;;;;;;33.33;11.47;;;;;;;;;;5072472;28;20415;-89
2023/02/10 03:11:20;;;;;;;21.53;10.40;;;;;;;;;;5072440;28;20407;-92
2023/02/10 03:13:46;;;;;;;19.93;10.50;;;;;;;;;;5072605;28;20411;-87
2023/02/10 03:16:12;;;;;;;22.83;11.40;;;;;;;;;;5072931;28;20984;-92
2023/02/10 03:18:38;;;;;;;22.80;12.40;;;;;;;;;;5073743;28;20520;-92
2023/02/10 03:21:07;;;;;;;20.90;10.53;;;;;;;;;;5072445;28;20525;-91
2023/02/10 03:23:33;;;;;;;22.17;10.80;;;;;;;;;;5072487;28;20427;-90
2023/02/10 03:25:59;;;;;;;21.47;11.10;;;;;;;;;;5073134;28;20416;-91
2023/02/10 03:28:25;;;;;;;21.33;10.67;;;;;;;;;;5072725;28;20420;-89
2023/02/10 03:30:55;;;;;;;26.57;10.67;;;;;;;;;;5072694;28;20434;-91
2023/02/10 03:33:21;;;;;;;20.20;9.40;;;;;;;;;;5073351;28;20480;-89
2023/02/10 03:35:47;;;;;;;20.10;12.00;;;;;;;;;;5072886;28;20480;-90
2023/02/10 03:38:13;;;;;;;24.17;11.60;;;;;;;;;;5073549;28;20477;-90
2023/02/10 03:40:40;;;;;;;24.40;11.17;;;;;;;;;;5073715;28;20430;-89
2023/02/10 03:43:06;;;;;;;15.83;10.43;;;;;;;;;;5074010;28;20403;-90
2023/02/10 03:45:32;;;;;;;20.97;12.37;;;;;;;;;;5072758;28;20420;-90
2023/02/10 03:47:58;;;;;;;22.87;11.10;;;;;;;;;;5073592;28;20459;-90
2023/02/10 03:50:24;;;;;;;29.00;14.67;;;;;;;;;;5072553;28;20907;-90
2023/02/10 03:52:50;;;;;;;23.00;12.53;;;;;;;;;;5073037;28;20461;-90
2023/02/10 03:55:17;;;;;;;25.07;12.47;;;;;;;;;;5076616;28;20827;-90
2023/02/10 03:57:46;;;;;;;26.30;14.93;;;;;;;;;;5075362;28;20422;-86
2023/02/10 04:00:12;;;;;;;29.07;13.50;;;;;;;;;;5076447;28;20498;-88
2023/02/10 04:02:38;;;;;;;28.07;13.00;;;;;;;;;;5076451;28;20465;-89
2023/02/10 04:05:04;;;;;;;27.83;13.70;;;;;;;;;;5076316;28;20495;-84
2023/02/10 04:07:30;;;;;;;19.50;12.93;;;;;;;;;;5076074;28;20400;-89
2023/02/10 04:09:56;;;;;;;23.20;12.50;;;;;;;;;;5076243;28;20961;-88
2023/02/10 04:12:22;;;;;;;25.90;12.87;;;;;;;;;;5076237;28;20414;-88
2023/02/10 04:14:48;;;;;;;27.90;13.80;;;;;;;;;;5074801;28;20472;-88
2023/02/10 04:17:14;;;;;;;26.70;13.20;;;;;;;;;;5046126;28;20431;-86
2023/02/10 04:19:40;;;;;;;26.43;13.90;;;;;;;;;;5076876;28;20473;-90
2023/02/10 04:22:06;;;;;;;24.50;14.80;;;;;;;;;;5075181;28;20421;-89
2023/02/10 04:24:32;;;;;;;21.30;12.27;;;;;;;;;;5075891;28;20906;-89
2023/02/10 04:26:58;;;;;;;25.93;14.07;;;;;;;;;;5075824;28;20402;-88
2023/02/10 04:29:24;;;;;;;25.03;13.50;;;;;;;;;;5075689;28;20419;-88
2023/02/10 04:31:50;;;;;;;23.90;12.83;;;;;;;;;;5075775;28;20428;-84
2023/02/10 04:34:15;;;;;;;24.87;14.13;;;;;;;;;;5075596;28;20851;-85
2023/02/10 04:36:41;;;;;;;20.07;13.70;;;;;;;;;;5074194;28;20407;-85
2023/02/10 04:39:07;;;;;;;31.77;17.50;;;;;;;;;;5075283;28;20508;-89
2023/02/10 04:41:33;;;;;;;34.00;15.13;;;;;;;;;;5075668;28;20423;-88
2023/02/10 04:43:59;;;;;;;35.13;16.70;;;;;;;;;;5075652;28;20419;-88
2023/02/10 04:46:25;;;;;;;26.03;14.00;;;;;;;;;;5075356;28;20425;-86
2023/02/10 04:48:51;;;;;;;29.83;15.17;;;;;;;;;;5075269;28;20455;-88
2023/02/10 04:51:17;;;;;;;21.10;14.83;;;;;;;;;;5075408;28;20414;-87
2023/02/10 04:53:43;;;;;;;30.73;13.33;;;;;;;;;;5074050;28;20432;-91
2023/02/10 04:56:09;;;;;;;26.43;13.40;;;;;;;;;;5074552;28;20407;-88
2023/02/10 04:58:35;;;;;;;37.43;16.63;;;;;;;;;;5074910;28;20838;-91
2023/02/10 05:01:01;;;;;;;32.83;15.03;;;;;;;;;;5074600;28;20415;-91
2023/02/10 05:03:27;;;;;;;28.77;15.03;;;;;;;;;;5074018;28;20542;-92
2023/02/10 05:05:53;;;;;;;29.10;14.97;;;;;;;;;;5075149;28;20412;-89
2023/02/10 05:08:19;;;;;;;23.57;14.07;;;;;;;;;;5074378;28;20446;-89
2023/02/10 05:10:49;;;;;;;21.60;13.50;;;;;;;;;;5074241;28;20415;-91
2023/02/10 05:13:15;;;;;;;25.77;14.03;;;;;;;;;;5074377;28;20495;-88
2023/02/10 05:15:41;;;;;;;25.67;13.30;;;;;;;;;;5074858;28;20411;-91
2023/02/10 05:18:07;;;;;;;32.10;15.27;;;;;;;;;;5073817;28;20470;-89
2023/02/10 05:20:33;;;;;;;28.73;15.57;;;;;;;;;;5075016;28;20432;-91
2023/02/10 05:22:59;;;;;;;28.33;14.30;;;;;;;;;;5074569;28;20414;-90
2023/02/10 05:25:28;;;;;;;32.37;15.77;;;;;;;;;;5074233;28;20924;-91
2023/02/10 05:27:54;;;;;;;23.67;12.50;;;;;;;;;;5074863;28;20465;-89
2023/02/10 05:30:20;;;;;;;35.43;15.53;;;;;;;;;;5074812;28;20411;-90
2023/02/10 05:32:46;;;;;;;34.77;15.47;;;;;;;;;;5075142;28;20436;-88
2023/02/10 05:35:12;;;;;;;27.33;14.33;;;;;;;;;;5074585;28;20413;-88
2023/02/10 05:37:38;;;;;;;36.67;12.40;;;;;;;;;;5073126;28;20908;-89
2023/02/10 05:40:04;;;;;;;27.67;14.17;;;;;;;;;;5074657;28;20542;-89
2023/02/10 05:42:30;;;;;;;26.97;12.30;;;;;;;;;;5073626;28;20420;-89
2023/02/10 05:44:56;;;;;;;27.00;14.30;;;;;;;;;;5079423;28;20487;-90
2023/02/10 05:47:28;;;;;;;37.30;16.23;;;;;;;;;;5074159;28;20490;-89
2023/02/10 05:49:53;;;;;;;22.40;13.20;;;;;;;;;;5056943;28;20505;-86
2023/02/10 05:52:19;;;;;;;28.67;15.80;;;;;;;;;;5073869;28;20585;-89
2023/02/10 05:54:45;;;;;;;33.93;16.07;;;;;;;;;;5073043;28;20850;-90
2023/02/10 05:57:11;;;;;;;31.27;15.10;;;;;;;;;;5072881;28;20524;-88
2023/02/10 05:59:37;;;;;;;25.97;13.00;;;;;;;;;;5074210;28;20476;-90
2023/02/10 06:02:06;;;;;;;25.93;13.40;;;;;;;;;;5072886;28;20460;-90
2023/02/10 06:04:32;;;;;;;24.50;13.67;;;;;;;;;;5073002;28;20433;-90
2023/02/10 06:06:58;;;;;;;22.03;14.50;;;;;;;;;;5072879;28;20416;-88
2023/02/10 06:09:24;;;;;;;35.13;16.07;;;;;;;;;;5072500;28;20928;-90
2023/02/10 06:11:51;;;;;;;33.97;15.60;;;;;;;;;;5073362;28;20411;-91
2023/02/10 06:14:20;;;;;;;33.50;15.00;;;;;;;;;;5076615;28;20439;-89
2023/02/10 06:16:46;;;;;;;33.00;16.77;;;;;;;;;;5073232;28;20511;-90
2023/02/10 06:19:12;;;;;;;32.60;15.10;;;;;;;;;;5074068;28;21018;-90
2023/02/10 06:21:38;;;;;;;24.67;13.47;;;;;;;;;;5072961;28;20915;-89
2023/02/10 06:24:04;;;;;;;27.63;15.70;;;;;;;;;;5072543;28;20419;-87
2023/02/10 06:26:30;;;;;;;25.67;15.53;;;;;;;;;;5073889;28;20415;-87
2023/02/10 06:28:56;;;;;;;34.33;17.47;;;;;;;;;;5074133;28;20449;-87
2023/02/10 06:31:23;;;;;;;32.57;14.33;;;;;;;;;;5072478;28;20907;-86
2023/02/10 06:33:49;;;;;;;24.70;16.47;;;;;;;;;;5073219;28;20400;-85
2023/02/10 06:36:18;;;;;;;33.27;16.83;;;;;;;;;;5072273;28;20971;-86
2023/02/10 06:38:44;;;;;;;30.97;16.80;;;;;;;;;;5072821;28;20467;-86
2023/02/10 06:41:10;;;;;;;23.90;15.27;;;;;;;;;;5073229;28;20429;-87
2023/02/10 06:43:36;;;;;;;32.17;15.57;;;;;;;;;;5072009;28;20514;-86
2023/02/10 06:46:02;;;;;;;34.07;16.60;;;;;;;;;;5071367;28;20909;-86
2023/02/10 06:48:28;;;;;;;24.33;15.23;;;;;;;;;;5072919;28;20422;-87
2023/02/10 06:50:53;;;;;;;33.07;18.07;;;;;;;;;;5071635;28;20411;-86
2023/02/10 06:53:20;;;;;;;32.27;16.40;;;;;;;;;;5072634;28;20423;-85
2023/02/10 06:55:46;;;;;;;26.67;16.13;;;;;;;;;;5072742;28;20405;-89
2023/02/10 06:58:12;;;;;;;27.73;13.40;;;;;;;;;;5059848;28;20982;-89
2023/02/10 07:00:38;;;;;;;31.00;15.37;;;;;;;;;;5046974;28;20422;-86
2023/02/10 07:03:04;;;;;;;41.33;16.13;;;;;;;;;;5072782;28;20455;-88
2023/02/10 07:05:31;;;;;;;29.03;13.17;;;;;;;;;;5072976;28;20410;-88
2023/02/10 07:07:59;;;;;;;26.50;14.43;;;;;;;;;;5073030;28;20767;-88
2023/02/10 07:10:25;;;;;;;35.77;16.70;;;;;;;;;;5073293;28;20507;-90
2023/02/10 07:12:51;;;;;;;26.73;16.10;;;;;;;;;;5073331;28;20463;-86
2023/02/10 07:15:18;;;;;;;25.60;14.83;;;;;;;;;;5073939;28;20402;-89
2023/02/10 07:17:44;;;;;;;34.17;15.70;;;;;;;;;;5071662;28;20794;-92
2023/02/10 07:20:10;;;;;;;33.03;15.60;;;;;;;;;;5072126;28;20475;-86
2023/02/10 07:22:36;;;;;;;30.63;15.10;;;;;;;;;;5072501;28;20498;-91
2023/02/10 07:25:02;;;;;;;35.57;19.27;;;;;;;;;;5072243;28;20463;-90
2023/02/10 07:27:28;;;;;;;31.80;14.63;;;;;;;;;;5071234;28;20549;-87
2023/02/10 07:29:54;;;;;;;26.67;12.80;;;;;;;;;;5054973;28;20774;-86
2023/02/10 07:32:20;;;;;;;36.93;18.30;;;;;;;;;;5057244;28;20420;-93
2023/02/10 07:34:46;;;;;;;30.23;16.13;;;;;;;;;;5058215;28;20412;-87
2023/02/10 07:37:12;;;;;;;35.90;15.93;;;;;;;;;;5057080;28;20412;-93
2023/02/10 07:39:38;;;;;;;31.23;18.37;;;;;;;;;;5065087;28;20487;-93
2023/02/10 07:42:04;;;;;;;23.23;15.00;;;;;;;;;;5064308;28;20417;-89
2023/02/10 07:44:30;;;;;;;29.20;16.50;;;;;;;;;;5075725;28;20946;-95
2023/02/10 07:46:55;;;;;;;26.37;14.33;;;;;;;;;;5077117;28;20765;-86
2023/02/10 07:49:21;;;;;;;31.50;16.90;;;;;;;;;;5074738;28;20412;-88
2023/02/10 07:51:47;;;;;;;31.00;16.57;;;;;;;;;;5076433;28;20768;-87
2023/02/10 07:54:13;;;;;;;44.60;18.17;;;;;;;;;;5074623;28;20423;-89
2023/02/10 07:56:39;;;;;;;33.67;16.90;;;;;;;;;;5074777;28;20428;-87
2023/02/10 07:59:05;;;;;;;33.07;17.60;;;;;;;;;;5074929;28;21056;-92
2023/02/10 08:01:31;;;;;;;34.73;17.40;;;;;;;;;;5036235;28;20422;-87
2023/02/10 08:03:57;;;;;;;36.80;17.83;;;;;;;;;;5074621;28;20529;-89
2023/02/10 08:06:24;;;;;;;31.43;17.90;;;;;;;;;;5075756;28;20419;-88
2023/02/10 08:08:50;;;;;;;37.80;17.07;;;;;;;;;;5075588;28;20464;-86
2023/02/10 08:11:17;;;;;;;39.17;19.20;;;;;;;;;;5072805;28;20422;-88
2023/02/10 08:13:43;;;;;;;33.80;17.37;;;;;;;;;;5076657;28;20433;-90
2023/02/10 08:16:11;;;;;;;33.63;18.00;;;;;;;;;;5075764;28;20420;-92
2023/02/10 08:18:37;;;;;;;36.33;19.57;;;;;;;;;;5074643;28;20494;-90
2023/02/10 08:21:03;;;;;;;32.17;18.20;;;;;;;;;;5075110;28;20433;-88
2023/02/10 08:23:30;;;;;;;32.67;16.30;;;;;;;;;;5076081;28;20404;-89
2023/02/10 08:25:55;;;;;;;28.10;17.00;;;;;;;;;;5074976;28;20411;-89
2023/02/10 08:28:21;;;;;;;33.00;15.17;;;;;;;;;;5074932;28;20427;-90
2023/02/10 08:30:47;;;;;;;30.50;15.20;;;;;;;;;;5074308;28;20424;-87
2023/02/10 08:33:13;;;;;;;32.00;14.77;;;;;;;;;;5074470;28;20508;-87
2023/02/10 08:35:40;;;;;;;43.00;16.90;;;;;;;;;;5074554;28;20465;-87
2023/02/10 08:38:08;;;;;;;36.90;15.87;;;;;;;;;;5075106;28;20951;-88
2023/02/10 08:40:34;;;;;;;29.40;15.30;;;;;;;;;;5072530;28;20431;-89
2023/02/10 08:43:01;;;;;;;33.90;15.40;;;;;;;;;;5075006;28;20411;-86
2023/02/10 08:45:27;;;;;;;29.83;15.53;;;;;;;;;;5073779;28;20454;-87
2023/02/10 08:47:53;;;;;;;25.70;15.03;;;;;;;;;;5073946;28;20417;-88
2023/02/10 08:50:19;;;;;;;26.00;15.03;;;;;;;;;;5072423;28;20776;-86
2023/02/10 08:52:45;;;;;;;36.43;15.90;;;;;;;;;;5071941;28;20416;-86
2023/02/10 08:55:11;;;;;;;31.23;14.50;;;;;;;;;;5073374;28;20944;-86
2023/02/10 08:57:37;;;;;;;34.10;14.57;;;;;;;;;;5072574;28;20420;-86
2023/02/10 09:00:04;;;;;;;30.07;15.80;;;;;;;;;;5038725;28;21256;-86
2023/02/10 09:02:30;;;;;;;35.53;16.87;;;;;;;;;;5068424;28;20482;-86
2023/02/10 09:04:56;;;;;;;37.40;15.60;;;;;;;;;;5074419;28;20895;-86
2023/02/10 09:07:22;;;;;;;25.70;13.87;;;;;;;;;;5073154;28;20408;-87
2023/02/10 09:09:48;;;;;;;28.00;14.50;;;;;;;;;;5074280;28;20923;-86
2023/02/10 09:12:14;;;;;;;32.00;14.80;;;;;;;;;;5074674;28;20407;-89
2023/02/10 09:14:40;;;;;;;26.67;14.53;;;;;;;;;;5084895;28;20458;-89
2023/02/10 09:17:08;;;;;;;33.27;16.93;;;;;;;;;;5073452;28;20498;-87
2023/02/10 09:19:34;;;;;;;25.90;14.97;;;;;;;;;;5074395;28;20500;-87
2023/02/10 09:22:00;;;;;;;31.83;15.70;;;;;;;;;;5071188;28;20786;-87
2023/02/10 09:24:26;;;;;;;30.43;15.37;;;;;;;;;;5074319;28;20415;-87
2023/02/10 09:26:52;;;;;;;40.40;18.57;;;;;;;;;;5073454;28;20497;-86
2023/02/10 09:29:18;;;;;;;37.73;18.30;;;;;;;;;;5074060;28;20483;-86
2023/02/10 09:31:44;;;;;;;33.40;17.50;;;;;;;;;;5073934;28;20404;-87
2023/02/10 09:34:10;;;;;;;41.23;19.40;;;;;;;;;;5072582;28;20478;-87
2023/02/10 09:36:36;;;;;;;30.47;16.77;;;;;;;;;;5072425;28;20442;-87
2023/02/10 09:39:02;;;;;;;34.00;17.80;;;;;;;;;;5073896;28;20544;-85
2023/02/10 09:41:34;;;;;;;38.97;18.10;;;;;;;;;;5073749;28;20418;-87
2023/02/10 09:44:19;;;;;;;32.27;16.23;;;;;;;;;;5073520;28;20408;-85
2023/02/10 09:46:44;;;;;;;31.23;17.80;;;;;;;;;;5072042;28;20806;-86
2023/02/10 09:49:29;;;;;;;29.80;15.90;;;;;;;;;;5073453;28;20482;-86
2023/02/10 09:52:07;;;;;;;30.33;17.47;;;;;;;;;;5070994;28;20506;-86
2023/02/10 09:54:33;;;;;;;24.43;15.30;;;;;;;;;;5073210;28;20412;-86
2023/02/10 09:57:04;;;;;;;35.03;15.80;;;;;;;;;;5068971;28;20427;-86
2023/02/10 09:59:33;;;;;;;26.13;14.97;;;;;;;;;;5073113;28;20472;-86
2023/02/10 10:02:03;;;;;;;26.17;14.33;;;;;;;;;;5036251;28;20905;-86
2023/02/10 10:04:31;;;;;;;34.97;18.60;;;;;;;;;;5072340;28;20430;-86
2023/02/10 10:07:19;;;;;;;28.43;15.67;;;;;;;;;;5073076;28;20409;-87
2023/02/10 10:09:46;;;;;;;34.17;16.37;;;;;;;;;;5059741;28;20558;-83
2023/02/10 10:12:16;;;;;;;32.97;16.50;;;;;;;;;;5051947;28;20400;-82
2023/02/10 10:14:43;;;;;;;33.67;15.03;;;;;;;;;;5052749;28;20798;-81
2023/02/10 10:17:14;;;;;;;30.10;16.60;;;;;;;;;;5052946;28;20405;-83
2023/02/10 10:19:55;;;;;;;26.57;15.97;;;;;;;;;;5050225;28;20482;-86
2023/02/10 10:22:37;;;;;;;29.57;15.97;;;;;;;;;;5071942;28;20462;-92
2023/02/10 10:25:09;;;;;;;28.33;17.47;;;;;;;;;;5069483;28;20754;-88
2023/02/10 10:27:54;;;;;;;35.13;14.83;;;;;;;;;;5070424;28;20432;-88
2023/02/10 10:30:25;;;;;;;31.93;16.67;;;;;;;;;;5072746;28;20443;-85
2023/02/10 10:32:57;;;;;;;36.40;18.93;;;;;;;;;;5072448;28;20403;-87
2023/02/10 10:35:26;;;;;;;38.37;16.87;;;;;;;;;;5071640;28;20413;-87
2023/02/10 10:37:52;;;;;;;32.27;16.63;;;;;;;;;;5072510;28;20413;-89
2023/02/10 10:40:21;;;;;;;33.97;17.03;;;;;;;;;;5072633;28;20464;-85
2023/02/10 10:42:48;;;;;;;33.80;16.27;;;;;;;;;;5070508;28;20834;-81
2023/02/10 10:45:14;;;;;;;21.63;14.20;;;;;;;;;;5070293;28;21089;-80
2023/02/10 10:47:52;;;;;;;28.43;14.23;;;;;;;;;;5071826;28;20416;-81
2023/02/10 10:50:19;;;;;;;26.57;15.83;;;;;;;;;;5070146;28;20612;-81
2023/02/10 10:52:51;;;;;;;22.87;14.37;;;;;;;;;;5071684;28;20419;-82
2023/02/10 10:55:21;;;;;;;25.23;15.00;;;;;;;;;;5070315;28;20821;-81
2023/02/10 10:57:47;;;;;;;26.70;14.03;;;;;;;;;;5069079;28;20424;-80
2023/02/10 11:00:20;;;;;;;30.43;16.10;;;;;;;;;;5070581;28;20479;-80
2023/02/10 11:02:54;;;;;;;32.60;16.23;;;;;;;;;;5032261;28;20852;-88
2023/02/10 11:05:20;;;;;;;32.33;16.40;;;;;;;;;;5075179;28;20419;-84
2023/02/10 11:07:51;;;;;;;26.00;16.13;;;;;;;;;;5075114;28;20423;-87
2023/02/10 11:10:30;;;;;;;28.77;15.33;;;;;;;;;;5075284;28;20421;-84
2023/02/10 11:12:57;;;;;;;31.40;15.80;;;;;;;;;;5074942;28;20959;-84
2023/02/10 11:15:26;;;;;;;35.47;17.13;;;;;;;;;;5074623;28;20409;-82
2023/02/10 11:17:53;;;;;;;31.17;17.00;;;;;;;;;;5074829;28;20768;-82
2023/02/10 11:20:24;;;;;;;22.97;14.90;;;;;;;;;;5074239;28;20964;-83
2023/02/10 11:23:01;;;;;;;27.43;14.43;;;;;;;;;;5074234;28;20460;-83
2023/02/10 11:25:34;;;;;;;27.67;15.33;;;;;;;;;;5075869;28;20442;-83
2023/02/10 11:28:01;;;;;;;23.93;15.20;;;;;;;;;;5074433;28;20897;-83
2023/02/10 11:30:29;;;;;;;27.03;15.60;;;;;;;;;;5074172;28;20479;-89
2023/02/10 11:32:55;;;;;;;31.10;16.07;;;;;;;;;;5074658;28;20441;-88
2023/02/10 11:35:21;;;;;;;27.33;16.33;;;;;;;;;;5073355;28;20415;-86
2023/02/10 11:37:52;;;;;;;22.63;12.90;;;;;;;;;;5076177;28;20412;-88
2023/02/10 11:40:29;;;;;;;25.17;13.60;;;;;;;;;;5078839;28;20874;-92
2023/02/10 11:42:57;;;;;;;14.43;10.60;;;;;;;;;;5076887;28;20427;-86
2023/02/10 11:45:24;;;;;;;24.90;13.50;;;;;;;;;;5075263;28;20414;-84
2023/02/10 11:48:00;;;;;;;16.73;10.83;;;;;;;;;;5074022;28;20412;-83
2023/02/10 11:50:27;;;;;;;18.73;10.90;;;;;;;;;;5073617;28;20425;-83
2023/02/10 11:52:54;;;;;;;18.03;9.83;;;;;;;;;;5073445;28;20430;-83
2023/02/10 11:55:22;;;;;;;18.30;10.27;;;;;;;;;;5073897;28;20443;-84
2023/02/10 12:00:38;;;;;;;14.53;9.30;;;;;;;;;;5072993;28;20511;-83
2023/02/10 12:03:14;;;;;;;15.10;8.00;;;;;;;;;;5048055;28;20464;-86
2023/02/10 12:05:50;;;;;;;15.90;8.30;;;;;;;;;;5075599;28;20515;-90
2023/02/10 12:08:25;;;;;;;16.87;7.47;;;;;;;;;;5075550;28;20500;-90
2023/02/10 12:11:00;;;;;;;15.93;7.60;;;;;;;;;;5075778;28;20496;-86
2023/02/10 12:13:44;;;;;;;15.03;7.93;;;;;;;;;;5074777;28;20417;-90
2023/02/10 12:16:19;;;;;;;12.73;7.00;;;;;;;;;;5073742;28;20418;-89
2023/02/10 12:18:48;;;;;;;13.03;7.60;;;;;;;;;;5072954;28;20456;-82
2023/02/10 12:21:34;;;;;;;14.50;6.17;;;;;;;;;;5065253;28;20419;-84
2023/02/10 12:24:02;;;;;;;17.03;8.27;;;;;;;;;;5085415;28;20941;-86
2023/02/10 12:26:34;;;;;;;14.60;6.73;;;;;;;;;;5063257;28;20421;-84
2023/02/10 12:29:15;;;;;;;20.13;7.80;;;;;;;;;;5064052;28;20524;-87
2023/02/10 12:31:50;;;;;;;14.07;6.90;;;;;;;;;;5069566;28;21158;-84
2023/02/10 12:34:22;;;;;;;12.23;5.73;;;;;;;;;;5063412;28;20805;-86
2023/02/10 12:36:54;;;;;;;13.00;8.10;;;;;;;;;;5067223;28;20507;-84
2023/02/10 12:39:23;;;;;;;15.07;5.93;;;;;;;;;;5058998;28;20460;-85
2023/02/10 12:41:49;;;;;;;16.03;6.33;;;;;;;;;;5064081;28;20411;-86
2023/02/10 12:44:14;;;;;;;13.70;6.20;;;;;;;;;;5060724;28;20439;-84
2023/02/10 12:46:46;;;;;;;15.23;6.50;;;;;;;;;;5061966;28;20413;-85
2023/02/10 12:49:26;;;;;;;12.37;7.37;;;;;;;;;;5064055;28;20182;-86
2023/02/10 12:51:58;;;;;;;18.67;6.03;;;;;;;;;;5063412;28;20760;-86
2023/02/10 12:54:33;;;;;;;12.87;5.43;;;;;;;;;;5062798;28;20424;-86
2023/02/10 12:57:01;;;;;;;15.87;6.90;;;;;;;;;;5064527;28;20563;-85
2023/02/10 12:59:36;;;;;;;15.97;6.57;;;;;;;;;;5071922;28;20563;-85
2023/02/10 13:02:05;;;;;;;13.23;6.83;;;;;;;;;;5072512;28;20472;-85
2023/02/10 13:04:36;;;;;;;12.53;6.10;;;;;;;;;;5047300;28;20430;-87
2023/02/10 13:07:06;;;;;;;10.80;4.70;;;;;;;;;;5073624;28;20477;-86
2023/02/10 13:09:39;;;;;;;9.93;4.80;;;;;;;;;;5073066;28;20940;-84
2023/02/10 13:12:24;;;;;;;11.77;5.10;;;;;;;;;;5073909;28;20490;-90
2023/02/10 13:14:52;;;;;;;13.23;4.93;;;;;;;;;;5072508;28;20407;-86
2023/02/10 13:17:18;;;;;;;11.63;7.00;;;;;;;;;;5071436;28;20412;-89
2023/02/10 13:20:10;;;;;;;9.63;4.60;;;;;;;;;;5071382;28;20832;-82
2023/02/10 13:22:49;;;;;;;15.00;6.83;;;;;;;;;;5062770;28;20474;-84
2023/02/10 13:25:33;;;;;;;13.40;6.10;;;;;;;;;;5071658;28;20404;-84
2023/02/10 13:28:18;;;;;;;13.10;7.47;;;;;;;;;;5070375;28;20824;-84
2023/02/10 13:30:53;;;;;;;12.00;7.40;;;;;;;;;;5068852;28;20447;-84
2023/02/10 13:33:32;;;;;;;12.80;6.90;;;;;;;;;;5070678;28;20773;-85
2023/02/10 13:35:58;;;;;;;12.17;7.43;;;;;;;;;;5069903;28;20435;-85
2023/02/10 13:38:29;;;;;;;11.30;6.70;;;;;;;;;;5073001;28;20448;-82
2023/02/10 13:43:41;;;;;;;14.03;7.97;;;;;;;;;;5073088;28;20450;-83
2023/02/10 13:46:20;;;;;;;9.27;5.67;;;;;;;;;;5072756;28;20422;-85
2023/02/10 13:48:51;;;;;;;14.83;6.57;;;;;;;;;;5071566;28;20433;-85
2023/02/10 13:51:17;;;;;;;10.10;7.10;;;;;;;;;;5071526;28;20424;-84
2023/02/10 13:53:43;;;;;;;17.67;8.57;;;;;;;;;;5072052;28;20427;-85
2023/02/10 13:56:25;;;;;;;10.73;6.63;;;;;;;;;;5072995;28;20415;-86
2023/02/10 13:59:07;;;;;;;17.47;6.63;;;;;;;;;;5071588;28;20467;-85
2023/02/10 14:01:48;;;;;;;14.17;5.87;;;;;;;;;;5069887;28;20412;-87
2023/02/10 14:04:17;;;;;;;19.50;8.37;;;;;;;;;;5072716;28;20436;-86
2023/02/10 14:06:44;;;;;;;12.13;6.50;;;;;;;;;;5070477;28;20893;-85
2023/02/10 14:09:22;;;;;;;14.30;5.90;;;;;;;;;;5073026;28;20900;-84
2023/02/10 14:11:52;;;;;;;16.40;6.13;;;;;;;;;;5074437;28;20419;-86
2023/02/10 14:14:19;;;;;;;13.00;7.83;;;;;;;;;;5076723;28;20412;-85
2023/02/10 14:16:46;;;;;;;10.77;6.13;;;;;;;;;;5075215;28;20424;-86
2023/02/10 14:19:30;;;;;;;13.80;7.23;;;;;;;;;;5076662;28;20477;-93
2023/02/10 14:21:57;;;;;;;11.17;6.43;;;;;;;;;;5080536;28;20418;-85
2023/02/10 14:24:25;;;;;;;8.07;5.53;;;;;;;;;;5078189;28;20442;-84
2023/02/10 14:26:51;;;;;;;13.73;7.13;;;;;;;;;;5081708;28;20482;-91
2023/02/10 14:29:18;;;;;;;9.50;6.17;;;;;;;;;;5073254;28;20993;-92
2023/02/10 14:31:46;;;;;;;16.43;8.07;;;;;;;;;;5072196;28;20404;-85
2023/02/10 14:34:20;;;;;;;14.07;7.37;;;;;;;;;;5073668;28;20458;-86